CBR weather

Canberra International Airport
Canberra, Australian Capital Territory, Australia

Public forecast

Using degrees Celsius for public forecast. Weather courtesy of forecast.io.

Current aviation weather report (METAR) for Canberra International Airport

Retrieved 2019/11/20 10:30 UTC (21 minutes ago):

YSCB 201030Z AUTO 07006KT 050V110 9999 // NCD 21/11 Q1017 RF000/0000

Aviation forecast (TAF) for Canberra International Airport

Retrieved 2019/11/20 06:00 UTC (5 hours ago):

TAF YSCB 200503Z 2006/2106 35005KT CAVOK FM200800 09010KT CAVOK FM201400 13005KT CAVOK FM202300 32005KT CAVOK FM210100 32014KT CAVOK